Time;durP1;ratioP1;P1;durP2;ratioP2;P2;SDS_P1;SDS_P2;PMS_P1;PMS_P2;Temp;Humidity;BMP_temperature;BMP_pressure;BME280_temperature;BME280_humidity;BME280_pressure;Samples;Min_cycle;Max_cycle;Signal;HPM_P1;HPM_P2
2022/07/22 00:02:18;;;;;;;6.05;1.20;;;17.10;99.90;;;;;;5047956;28;20645;-92
2022/07/22 00:04:50;;;;;;;7.25;1.25;;;17.10;99.90;;;;;;5046461;28;20205;-91
2022/07/22 00:07:22;;;;;;;6.70;1.30;;;17.20;99.90;;;;;;5042456;28;20616;-91
2022/07/22 00:09:53;;;;;;;5.95;0.80;;;17.20;99.90;;;;;;5042888;28;20205;-92
2022/07/22 00:12:24;;;;;;;5.60;0.90;;;17.30;99.90;;;;;;5046008;28;20215;-90
2022/07/22 00:14:56;;;;;;;5.22;1.00;;;17.50;99.90;;;;;;5034978;28;20208;-91
2022/07/22 00:17:28;;;;;;;4.97;0.80;;;17.60;99.90;;;;;;5045900;28;20729;-90
2022/07/22 00:20:00;;;;;;;3.47;0.70;;;17.70;99.90;;;;;;5043008;28;20201;-91
2022/07/22 00:22:32;;;;;;;4.45;0.70;;;17.80;99.90;;;;;;5045253;28;20209;-91
2022/07/22 00:25:04;;;;;;;4.50;0.90;;;17.90;99.90;;;;;;5050297;28;20189;-90
2022/07/22 00:27:35;;;;;;;1.90;0.57;;;17.90;99.90;;;;;;5050988;28;20289;-92
2022/07/22 00:30:07;;;;;;;2.53;0.77;;;18.00;99.90;;;;;;5047941;28;20208;-91
2022/07/22 00:32:41;;;;;;;5.40;1.40;;;18.10;99.90;;;;;;5047175;28;20196;-90
2022/07/22 00:35:14;;;;;;;4.35;0.82;;;18.20;99.90;;;;;;5048098;28;20204;-90
2022/07/22 00:37:44;;;;;;;3.05;0.50;;;18.30;99.90;;;;;;5044920;28;20219;-90
2022/07/22 00:40:15;;;;;;;4.78;0.70;;;18.30;99.90;;;;;;5047271;28;20738;-89
2022/07/22 00:42:47;;;;;;;4.85;0.80;;;18.40;99.90;;;;;;5046195;28;20204;-91
2022/07/22 00:45:19;;;;;;;4.90;0.80;;;18.50;99.90;;;;;;5048958;28;20201;-90
2022/07/22 00:47:53;;;;;;;5.63;1.00;;;18.50;99.90;;;;;;5052528;28;20224;-90
2022/07/22 00:50:25;;;;;;;3.47;0.82;;;18.60;99.90;;;;;;5054277;28;20620;-91
2022/07/22 00:52:57;;;;;;;5.53;1.05;;;18.70;99.90;;;;;;5052227;28;20212;-91
2022/07/22 00:55:30;;;;;;;7.75;1.05;;;18.80;99.90;;;;;;5052692;28;20263;-91
2022/07/22 00:58:01;;;;;;;8.70;1.10;;;18.90;99.90;;;;;;5057431;28;20192;-90
2022/07/22 01:00:34;;;;;;;3.28;0.93;;;18.90;99.90;;;;;;5071277;28;20180;-90
2022/07/22 01:03:08;;;;;;;5.50;1.27;;;19.00;99.90;;;;;;5044160;28;20207;-91
2022/07/22 01:05:40;;;;;;;4.30;0.88;;;19.10;99.90;;;;;;5055600;28;20209;-90
2022/07/22 01:08:11;;;;;;;5.00;0.88;;;19.10;99.90;;;;;;5054699;28;20239;-90
2022/07/22 01:10:43;;;;;;;4.82;0.73;;;19.20;99.90;;;;;;5045019;28;20208;-91
2022/07/22 01:13:14;;;;;;;6.45;1.00;;;19.20;99.90;;;;;;5054102;28;20204;-90
2022/07/22 01:15:45;;;;;;;2.95;0.82;;;19.20;99.90;;;;;;5054054;28;20533;-91
2022/07/22 01:18:19;;;;;;;4.43;0.80;;;19.30;99.90;;;;;;5052086;28;20207;-89
2022/07/22 01:20:55;;;;;;;7.13;0.98;;;19.30;99.90;;;;;;5051401;28;20200;-90
2022/07/22 01:23:27;;;;;;;5.10;0.98;;;19.30;99.90;;;;;;5050680;28;20217;-91
2022/07/22 01:25:59;;;;;;;4.20;0.90;;;19.20;99.90;;;;;;5053939;28;20193;-90
2022/07/22 01:28:31;;;;;;;2.42;0.73;;;19.00;99.90;;;;;;5039323;28;20233;-88
2022/07/22 01:31:03;;;;;;;2.28;0.52;;;18.90;99.90;;;;;;5046164;28;20229;-90
2022/07/22 01:33:34;;;;;;;3.83;0.82;;;18.80;99.90;;;;;;5048107;28;20197;-89
2022/07/22 01:36:07;;;;;;;2.90;0.98;;;18.70;99.90;;;;;;5045490;28;20208;-90
2022/07/22 01:38:39;;;;;;;5.22;1.20;;;18.70;99.90;;;;;;5037806;28;20707;-92
2022/07/22 01:41:10;;;;;;;8.00;1.42;;;18.60;99.90;;;;;;5041401;28;20204;-94
2022/07/22 01:43:43;;;;;;;6.30;1.52;;;18.60;99.90;;;;;;5058723;28;20219;-92
2022/07/22 01:46:16;;;;;;;4.28;1.30;;;18.60;99.90;;;;;;5062164;28;20208;-91
2022/07/22 01:48:48;;;;;;;5.38;1.30;;;18.60;99.90;;;;;;5056095;28;20229;-91
2022/07/22 01:51:23;;;;;;;9.82;1.70;;;18.50;99.90;;;;;;5066414;28;20666;-91
2022/07/22 01:53:55;;;;;;;4.68;1.10;;;18.50;99.90;;;;;;5052244;28;20558;-86
2022/07/22 01:56:27;;;;;;;5.40;1.10;;;18.40;99.90;;;;;;5045629;28;20195;-85
2022/07/22 01:58:57;;;;;;;6.60;1.00;;;18.30;99.90;;;;;;5047413;28;20682;-86
2022/07/22 02:01:28;;;;;;;4.03;1.02;;;18.30;99.90;;;;;;5043154;28;20224;-83
2022/07/22 02:03:59;;;;;;;4.10;1.10;;;18.50;99.90;;;;;;5044349;28;20582;-83
2022/07/22 02:06:32;;;;;;;4.88;1.20;;;18.60;99.90;;;;;;5042951;28;20207;-82
2022/07/22 02:09:03;;;;;;;4.78;1.00;;;18.70;99.90;;;;;;5049291;28;20204;-83
2022/07/22 02:11:35;;;;;;;5.55;1.23;;;18.80;99.90;;;;;;5048493;28;20283;-84
2022/07/22 02:14:05;;;;;;;4.32;0.93;;;18.70;99.90;;;;;;5049185;28;20204;-84
2022/07/22 02:16:36;;;;;;;3.63;1.00;;;18.70;99.90;;;;;;5046632;28;20224;-84
2022/07/22 02:19:07;;;;;;;5.15;1.23;;;18.70;99.90;;;;;;5044033;28;20200;-84
2022/07/22 02:21:40;;;;;;;6.53;1.00;;;18.70;99.90;;;;;;5043772;28;20208;-84
2022/07/22 02:24:11;;;;;;;6.72;1.35;;;18.70;99.90;;;;;;5050611;28;20525;-84
2022/07/22 02:26:42;;;;;;;6.10;1.00;;;18.60;99.90;;;;;;5051560;28;20200;-83
2022/07/22 02:29:13;;;;;;;5.80;1.10;;;18.60;99.90;;;;;;5042462;28;20197;-84
2022/07/22 02:31:43;;;;;;;5.78;1.10;;;18.50;99.90;;;;;;5044179;28;20196;-83
2022/07/22 02:34:15;;;;;;;4.18;0.90;;;18.40;99.90;;;;;;5050480;28;20196;-84
2022/07/22 02:36:47;;;;;;;8.27;1.50;;;18.10;99.90;;;;;;5033469;28;20201;-83
2022/07/22 02:39:18;;;;;;;4.78;1.27;;;17.90;99.90;;;;;;5041771;28;20232;-84
2022/07/22 02:41:49;;;;;;;3.28;0.82;;;17.80;99.90;;;;;;5038220;28;20199;-88
2022/07/22 02:44:19;;;;;;;6.45;1.30;;;17.70;99.90;;;;;;5040339;28;20678;-86
2022/07/22 02:46:51;;;;;;;5.00;1.20;;;17.50;99.90;;;;;;5038141;28;20649;-86
2022/07/22 02:49:22;;;;;;;6.03;1.25;;;17.50;99.90;;;;;;5039489;28;20194;-83
2022/07/22 02:51:57;;;;;;;6.55;1.10;;;17.50;99.90;;;;;;5045188;28;20220;-83
2022/07/22 02:54:28;;;;;;;6.10;1.30;;;17.50;99.90;;;;;;5048491;28;20207;-84
2022/07/22 02:56:58;;;;;;;4.90;1.83;;;17.40;99.90;;;;;;5047963;28;20205;-84
2022/07/22 02:59:29;;;;;;;6.68;2.35;;;17.30;99.90;;;;;;5049284;28;20196;-83
2022/07/22 03:02:00;;;;;;;9.80;1.98;;;17.30;99.90;;;;;;5050626;28;20262;-85
2022/07/22 03:04:31;;;;;;;3.92;1.10;;;17.30;99.90;;;;;;5051147;28;20200;-83
2022/07/22 03:07:03;;;;;;;8.20;1.67;;;17.20;99.90;;;;;;5049096;28;20208;-83
2022/07/22 03:09:34;;;;;;;6.43;1.23;;;17.10;99.90;;;;;;5049959;28;20542;-84
2022/07/22 03:12:05;;;;;;;6.40;1.13;;;17.00;99.90;;;;;;5030937;28;20197;-85
2022/07/22 03:14:36;;;;;;;6.05;1.45;;;17.00;99.90;;;;;;5046846;28;20197;-87
2022/07/22 03:17:07;;;;;;;6.55;1.23;;;16.90;99.90;;;;;;5038382;28;20551;-86
2022/07/22 03:19:38;;;;;;;5.28;1.10;;;16.80;99.90;;;;;;5049836;28;20200;-83
2022/07/22 03:22:11;;;;;;;5.68;1.08;;;16.60;99.90;;;;;;5054570;28;20683;-82
2022/07/22 03:24:42;;;;;;;4.47;0.93;;;16.60;99.90;;;;;;5054042;28;20203;-81
2022/07/22 03:27:12;;;;;;;7.20;1.10;;;16.50;99.90;;;;;;5047895;28;20208;-81
2022/07/22 03:29:43;;;;;;;8.55;1.33;;;16.50;99.90;;;;;;5041283;28;20197;-81
2022/07/22 03:32:14;;;;;;;3.75;0.82;;;16.40;99.90;;;;;;5050420;28;20706;-82
2022/07/22 03:34:44;;;;;;;5.28;0.75;;;16.30;99.90;;;;;;5048050;28;20635;-82
2022/07/22 03:37:17;;;;;;;2.85;0.73;;;16.40;99.90;;;;;;5049542;28;20203;-81
2022/07/22 03:39:48;;;;;;;3.45;0.80;;;16.50;99.90;;;;;;5048573;28;20217;-81
2022/07/22 03:42:18;;;;;;;4.20;0.77;;;16.60;99.90;;;;;;5048194;28;20200;-81
2022/07/22 03:44:50;;;;;;;3.85;0.73;;;16.70;99.90;;;;;;5045295;28;20197;-81
2022/07/22 03:47:24;;;;;;;4.38;0.90;;;16.70;99.90;;;;;;5048045;28;20637;-82
2022/07/22 03:49:56;;;;;;;5.47;1.27;;;16.80;99.90;;;;;;5038376;28;20189;-82
2022/07/22 03:52:29;;;;;;;4.63;0.98;;;16.80;99.90;;;;;;5047228;28;20691;-82
2022/07/22 03:55:00;;;;;;;5.80;1.00;;;16.80;99.90;;;;;;5047201;28;20194;-81
2022/07/22 03:57:31;;;;;;;3.95;0.95;;;16.90;99.90;;;;;;5041116;28;20208;-83
2022/07/22 04:00:02;;;;;;;5.25;1.00;;;16.90;99.90;;;;;;5036595;28;20287;-82
2022/07/22 04:02:33;;;;;;;3.83;1.10;;;16.80;99.90;;;;;;5042190;28;20656;-83
2022/07/22 04:05:03;;;;;;;4.25;0.90;;;16.80;99.90;;;;;;5038412;28;20203;-82
2022/07/22 04:07:36;;;;;;;2.47;0.85;;;16.70;99.90;;;;;;5053819;28;20227;-83
2022/07/22 04:10:07;;;;;;;3.92;1.20;;;16.70;99.90;;;;;;5053990;28;20204;-83
2022/07/22 04:12:39;;;;;;;6.18;1.38;;;16.60;99.90;;;;;;5053224;28;20197;-81
2022/07/22 04:15:11;;;;;;;5.82;1.50;;;16.60;99.90;;;;;;5053832;28;20615;-83
2022/07/22 04:17:42;;;;;;;10.25;1.60;;;16.60;99.90;;;;;;5048395;28;20201;-82
2022/07/22 04:20:14;;;;;;;4.18;1.30;;;16.60;99.90;;;;;;5052010;28;20189;-83
2022/07/22 04:22:46;;;;;;;5.68;1.13;;;16.60;99.90;;;;;;5061502;28;20203;-82
2022/07/22 04:25:17;;;;;;;7.70;1.25;;;16.50;99.90;;;;;;5067736;28;20201;-82
2022/07/22 04:27:48;;;;;;;10.57;1.45;;;16.50;99.90;;;;;;5051885;28;20667;-83
2022/07/22 04:30:19;;;;;;;8.80;1.60;;;16.50;99.90;;;;;;5050513;28;20246;-83
2022/07/22 04:32:49;;;;;;;27.52;3.67;;;16.40;99.90;;;;;;5033946;28;20557;-83
2022/07/22 04:35:20;;;;;;;8.18;1.58;;;16.30;99.90;;;;;;5033958;28;20826;-83
2022/07/22 04:37:53;;;;;;;8.60;1.60;;;16.30;99.90;;;;;;5038389;28;20185;-83
2022/07/22 04:40:23;;;;;;;5.80;1.33;;;16.20;99.90;;;;;;5053983;28;20648;-83
2022/07/22 04:42:54;;;;;;;9.48;1.52;;;16.10;99.90;;;;;;5046586;28;20227;-83
2022/07/22 04:45:25;;;;;;;7.22;1.33;;;16.10;99.90;;;;;;5039389;28;20203;-82
2022/07/22 04:47:55;;;;;;;7.53;1.33;;;16.10;99.90;;;;;;5047918;28;20232;-82
2022/07/22 04:50:27;;;;;;;5.70;1.17;;;16.00;99.90;;;;;;5051464;28;20397;-81
2022/07/22 04:53:00;;;;;;;6.68;1.30;;;16.00;99.90;;;;;;5033158;28;20286;-82
2022/07/22 04:55:31;;;;;;;10.02;1.90;;;16.00;99.90;;;;;;5045686;28;20192;-82
2022/07/22 04:58:01;;;;;;;10.63;2.13;;;15.90;99.90;;;;;;5049088;28;20257;-85
2022/07/22 05:00:33;;;;;;;7.30;1.70;;;15.90;99.90;;;;;;5048359;28;20234;-83
2022/07/22 05:03:04;;;;;;;8.93;1.60;;;15.90;99.90;;;;;;5048953;28;20201;-85
2022/07/22 05:05:34;;;;;;;11.77;2.08;;;15.90;99.90;;;;;;5048869;28;20220;-85
2022/07/22 05:08:07;;;;;;;10.15;1.60;;;16.00;99.90;;;;;;5052132;28;20216;-85
2022/07/22 05:10:38;;;;;;;4.05;1.13;;;16.00;99.90;;;;;;5049356;28;20205;-85
2022/07/22 05:13:09;;;;;;;5.85;1.25;;;16.00;99.90;;;;;;5048265;28;20188;-86
2022/07/22 05:15:39;;;;;;;6.88;1.67;;;16.00;99.90;;;;;;5045593;28;20201;-85
2022/07/22 05:18:10;;;;;;;6.13;1.20;;;16.10;99.90;;;;;;5051386;28;20211;-83
2022/07/22 05:20:41;;;;;;;7.60;1.42;;;16.10;99.90;;;;;;5052991;28;20189;-82
2022/07/22 05:23:20;;;;;;;8.30;1.45;;;16.10;99.90;;;;;;5061649;28;20666;-82
2022/07/22 05:25:51;;;;;;;9.70;1.85;;;16.10;99.90;;;;;;5047068;28;20239;-84
2022/07/22 05:28:21;;;;;;;6.47;1.90;;;16.10;99.90;;;;;;5041488;28;20217;-82
2022/07/22 05:30:52;;;;;;;9.88;1.70;;;16.10;99.90;;;;;;5051509;28;20207;-82
2022/07/22 05:33:23;;;;;;;6.47;1.40;;;16.10;99.90;;;;;;5052579;28;20525;-85
2022/07/22 05:35:53;;;;;;;7.88;1.70;;;16.10;99.90;;;;;;5051733;28;20516;-82
2022/07/22 05:38:26;;;;;;;7.55;1.50;;;16.10;99.90;;;;;;5049014;28;20637;-82
2022/07/22 05:40:57;;;;;;;7.93;1.40;;;16.10;99.90;;;;;;5037090;28;20572;-86
2022/07/22 05:43:27;;;;;;;8.48;1.40;;;16.20;99.90;;;;;;5041418;28;20236;-87
2022/07/22 05:45:58;;;;;;;5.72;1.30;;;16.20;99.90;;;;;;5039782;28;20220;-88
2022/07/22 05:48:29;;;;;;;10.93;1.88;;;16.10;99.90;;;;;;5048930;28;20240;-81
2022/07/22 05:51:00;;;;;;;10.13;1.60;;;16.10;99.90;;;;;;5052029;28;20197;-82
2022/07/22 05:53:32;;;;;;;7.78;1.92;;;16.10;99.90;;;;;;5051896;28;20197;-81
2022/07/22 05:56:03;;;;;;;8.45;1.58;;;16.00;99.90;;;;;;5051200;28;20208;-81
2022/07/22 05:58:34;;;;;;;7.30;1.33;;;16.00;99.90;;;;;;5048707;28;20190;-86
2022/07/22 06:01:05;;;;;;;8.10;1.30;;;16.00;99.90;;;;;;5038692;28;20217;-81
2022/07/22 06:03:35;;;;;;;7.80;1.30;;;16.00;99.90;;;;;;5049576;28;20220;-82
2022/07/22 06:06:08;;;;;;;7.88;1.58;;;15.90;99.90;;;;;;5050230;28;20219;-83
2022/07/22 06:08:40;;;;;;;11.18;1.58;;;15.90;99.90;;;;;;5051032;28;20228;-81
2022/07/22 06:11:11;;;;;;;7.22;1.20;;;16.00;99.90;;;;;;5050848;28;20734;-82
2022/07/22 06:13:42;;;;;;;14.63;1.80;;;16.00;99.90;;;;;;5051476;28;20672;-82
2022/07/22 06:16:12;;;;;;;9.48;1.60;;;16.00;99.90;;;;;;5048874;28;20235;-82
2022/07/22 06:18:43;;;;;;;7.70;1.30;;;15.90;99.90;;;;;;5048694;28;20220;-82
2022/07/22 06:21:14;;;;;;;7.18;1.20;;;15.90;99.90;;;;;;5045736;28;20213;-80
2022/07/22 06:23:47;;;;;;;6.78;1.50;;;15.90;99.90;;;;;;5044810;28;20224;-82
2022/07/22 06:26:18;;;;;;;8.30;1.63;;;15.90;99.90;;;;;;5040320;28;20203;-82
2022/07/22 06:28:48;;;;;;;7.03;1.70;;;16.00;99.90;;;;;;5042191;28;20228;-84
2022/07/22 06:31:19;;;;;;;6.93;1.42;;;16.00;99.90;;;;;;5042502;28;20197;-84
2022/07/22 06:33:50;;;;;;;8.30;1.30;;;16.00;99.90;;;;;;5038860;28;20204;-83
2022/07/22 06:36:21;;;;;;;7.28;1.50;;;16.00;99.90;;;;;;5035667;28;20217;-81
2022/07/22 06:38:53;;;;;;;8.73;1.45;;;16.00;99.90;;;;;;5031069;28;20225;-81
2022/07/22 06:41:24;;;;;;;6.00;1.55;;;16.00;99.90;;;;;;5039402;28;20196;-81
2022/07/22 06:43:55;;;;;;;8.80;1.42;;;15.90;99.90;;;;;;5050070;28;20205;-82
2022/07/22 06:46:26;;;;;;;7.10;1.02;;;15.90;99.90;;;;;;5047506;28;20280;-84
2022/07/22 06:48:56;;;;;;;7.40;1.25;;;15.90;99.90;;;;;;5048292;28;20220;-81
2022/07/22 06:51:27;;;;;;;7.15;1.40;;;15.90;99.90;;;;;;5031359;28;20224;-81
2022/07/22 06:54:00;;;;;;;7.93;1.10;;;15.90;99.90;;;;;;5030919;28;20638;-81
2022/07/22 06:56:31;;;;;;;4.90;1.35;;;15.80;99.90;;;;;;5038710;28;20200;-82
2022/07/22 06:59:03;;;;;;;8.07;1.60;;;15.80;99.90;;;;;;5050321;28;20212;-83
2022/07/22 07:01:33;;;;;;;5.55;1.15;;;15.80;99.90;;;;;;5048859;28;20201;-81
2022/07/22 07:04:05;;;;;;;4.90;1.02;;;15.80;99.90;;;;;;5050039;28;20603;-80
2022/07/22 07:06:35;;;;;;;5.88;1.20;;;15.80;99.90;;;;;;5047911;28;20204;-80
2022/07/22 07:09:08;;;;;;;5.47;1.10;;;15.80;99.90;;;;;;5031070;28;20255;-82
2022/07/22 07:11:39;;;;;;;8.05;1.20;;;15.80;99.90;;;;;;5043881;28;20204;-80
2022/07/22 07:14:10;;;;;;;7.65;1.40;;;15.80;99.90;;;;;;5050493;28;20192;-80
2022/07/22 07:16:41;;;;;;;8.95;1.85;;;15.80;99.90;;;;;;5048957;28;20201;-81
2022/07/22 07:19:11;;;;;;;5.72;1.30;;;15.80;99.90;;;;;;5045989;28;20212;-86
2022/07/22 07:21:43;;;;;;;5.72;1.50;;;15.90;99.90;;;;;;5049720;28;20804;-81
2022/07/22 07:24:15;;;;;;;5.40;1.10;;;15.90;99.90;;;;;;5055965;28;20192;-82
2022/07/22 07:26:46;;;;;;;7.57;1.55;;;15.80;99.90;;;;;;5049398;28;20193;-81
2022/07/22 07:29:17;;;;;;;9.20;1.40;;;15.80;99.90;;;;;;5042857;28;20226;-81
2022/07/22 07:31:48;;;;;;;5.00;0.90;;;15.80;99.90;;;;;;5046846;28;20247;-81
2022/07/22 07:34:18;;;;;;;7.70;1.20;;;15.80;99.90;;;;;;5050394;28;20283;-85
2022/07/22 07:36:49;;;;;;;5.78;1.15;;;15.80;99.90;;;;;;5049889;28;20204;-85
2022/07/22 07:39:22;;;;;;;5.05;0.98;;;15.70;99.90;;;;;;5049503;28;20587;-80
2022/07/22 07:41:53;;;;;;;6.50;1.23;;;15.70;99.90;;;;;;5046546;28;20212;-81
2022/07/22 07:44:23;;;;;;;5.65;1.25;;;15.70;99.90;;;;;;5030246;28;20731;-81
2022/07/22 07:46:54;;;;;;;6.75;1.77;;;15.60;99.90;;;;;;5042055;28;20717;-82
2022/07/22 07:49:25;;;;;;;7.25;1.40;;;15.70;99.90;;;;;;5049292;28;20224;-81
2022/07/22 07:51:56;;;;;;;5.47;1.30;;;15.60;99.90;;;;;;5049720;28;20274;-81
2022/07/22 07:54:28;;;;;;;8.15;1.30;;;15.60;99.90;;;;;;5046154;28;20213;-81
2022/07/22 07:56:59;;;;;;;5.20;1.10;;;15.60;99.90;;;;;;5049776;28;20226;-85
2022/07/22 07:59:30;;;;;;;3.20;1.10;;;15.60;99.90;;;;;;5049667;28;20295;-81
2022/07/22 08:02:00;;;;;;;6.93;1.45;;;15.60;99.90;;;;;;5037016;28;20273;-81
2022/07/22 08:04:31;;;;;;;9.65;1.50;;;15.60;99.90;;;;;;5039809;28;20667;-81
2022/07/22 08:07:02;;;;;;;6.15;1.15;;;15.60;99.90;;;;;;5048590;28;20204;-81
2022/07/22 08:09:37;;;;;;;6.68;2.00;;;15.60;99.90;;;;;;5050236;28;20227;-81
2022/07/22 08:12:08;;;;;;;4.28;1.25;;;15.60;99.90;;;;;;5050230;28;20214;-81
2022/07/22 08:14:40;;;;;;;4.15;0.98;;;15.60;99.90;;;;;;5050079;28;20192;-81
2022/07/22 08:17:11;;;;;;;3.92;1.25;;;15.60;99.90;;;;;;5046897;28;20203;-82
2022/07/22 08:19:41;;;;;;;9.55;1.27;;;15.60;99.90;;;;;;5050002;28;20199;-85
2022/07/22 08:22:12;;;;;;;3.08;1.08;;;15.60;99.90;;;;;;5035419;28;20201;-86
2022/07/22 08:24:45;;;;;;;3.72;1.13;;;15.60;99.90;;;;;;5041391;28;20220;-82
2022/07/22 08:27:16;;;;;;;6.90;1.33;;;15.60;99.90;;;;;;5047506;28;20230;-80
2022/07/22 08:29:46;;;;;;;6.07;1.50;;;15.60;99.90;;;;;;5046361;28;20258;-80
2022/07/22 08:32:17;;;;;;;9.40;3.17;;;15.60;99.90;;;;;;5042745;28;20215;-80
2022/07/22 08:34:48;;;;;;;5.60;2.20;;;15.60;99.90;;;;;;5043731;28;20223;-80
2022/07/22 08:37:19;;;;;;;6.80;2.10;;;15.60;99.90;;;;;;5032187;28;20212;-81
2022/07/22 08:39:53;;;;;;;5.70;1.95;;;15.60;99.90;;;;;;5047321;28;20303;-81
2022/07/22 08:42:25;;;;;;;4.80;1.60;;;15.60;99.90;;;;;;5045781;28;20592;-81
2022/07/22 08:44:56;;;;;;;3.75;1.50;;;15.60;99.90;;;;;;5049065;28;20673;-81
2022/07/22 08:47:27;;;;;;;9.10;2.85;;;15.60;99.90;;;;;;5052422;28;20207;-80
2022/07/22 08:50:00;;;;;;;6.10;2.25;;;15.60;99.90;;;;;;5049491;28;20282;-81
2022/07/22 08:52:31;;;;;;;4.30;1.60;;;15.70;99.90;;;;;;5040848;28;21735;-81
2022/07/22 08:55:06;;;;;;;5.68;1.48;;;15.70;99.90;;;;;;5049762;28;20221;-81
2022/07/22 08:57:37;;;;;;;3.47;1.88;;;15.70;99.90;;;;;;5052742;28;20212;-81
2022/07/22 09:00:14;;;;;;;7.90;1.85;;;15.70;99.90;;;;;;5050668;28;20232;-81
2022/07/22 09:02:46;;;;;;;4.45;1.65;;;15.70;99.90;;;;;;5051174;28;20272;-81
2022/07/22 09:05:17;;;;;;;3.00;1.38;;;15.70;99.90;;;;;;5049115;28;20197;-81
2022/07/22 09:07:49;;;;;;;5.55;1.75;;;15.70;99.90;;;;;;5033800;28;20212;-83
2022/07/22 09:10:25;;;;;;;7.80;1.80;;;15.70;99.90;;;;;;5038612;28;20232;-88
2022/07/22 09:12:59;;;;;;;4.47;1.45;;;15.60;99.90;;;;;;5034627;28;20189;-88
2022/07/22 09:15:31;;;;;;;5.32;1.50;;;15.60;99.90;;;;;;5034219;28;20280;-86
2022/07/22 09:18:02;;;;;;;4.43;1.48;;;15.70;99.90;;;;;;5052954;28;20611;-86
2022/07/22 09:20:33;;;;;;;5.45;1.67;;;15.70;99.90;;;;;;5051032;28;20224;-83
2022/07/22 09:23:05;;;;;;;4.93;1.45;;;15.70;99.90;;;;;;5049875;28;20205;-82
2022/07/22 09:25:39;;;;;;;5.95;1.90;;;15.70;99.90;;;;;;5050987;28;20275;-81
2022/07/22 09:28:22;;;;;;;7.38;2.63;;;15.70;99.90;;;;;;5032775;28;20201;-80
2022/07/22 09:30:54;;;;;;;3.60;1.33;;;15.70;99.90;;;;;;5039747;28;20227;-82
2022/07/22 09:33:25;;;;;;;5.25;1.75;;;15.70;99.90;;;;;;5050743;28;20216;-81
2022/07/22 09:36:05;;;;;;;4.95;1.40;;;15.70;99.90;;;;;;5051549;28;20188;-81
2022/07/22 09:38:36;;;;;;;5.72;1.50;;;15.60;99.90;;;;;;5037209;28;20231;-85
2022/07/22 09:41:08;;;;;;;8.10;2.00;;;15.60;99.90;;;;;;5057389;28;20220;-85
2022/07/22 09:43:40;;;;;;;3.55;1.58;;;15.60;99.90;;;;;;5069528;28;20307;-82
2022/07/22 09:46:12;;;;;;;7.72;2.05;;;15.60;99.90;;;;;;5070260;28;20197;-81
2022/07/22 09:48:43;;;;;;;7.63;1.98;;;15.70;99.90;;;;;;5056882;28;20246;-80
2022/07/22 09:51:14;;;;;;;9.77;1.63;;;15.70;99.90;;;;;;5053204;28;20699;-80
2022/07/22 09:53:45;;;;;;;4.18;1.10;;;15.70;99.90;;;;;;5042748;28;20212;-82
2022/07/22 09:56:19;;;;;;;5.95;1.52;;;15.60;99.90;;;;;;5037787;28;20193;-84
2022/07/22 09:58:50;;;;;;;4.30;1.10;;;15.60;99.90;;;;;;5039904;28;20755;-85
2022/07/22 10:01:21;;;;;;;3.58;1.15;;;15.60;99.90;;;;;;5043451;28;20225;-91
2022/07/22 10:03:54;;;;;;;2.97;1.10;;;15.60;99.90;;;;;;5043733;28;20203;-81
2022/07/22 10:06:25;;;;;;;4.72;0.98;;;15.60;99.90;;;;;;5053467;28;20188;-81
2022/07/22 10:08:56;;;;;;;3.90;1.10;;;15.60;99.90;;;;;;5053007;28;20192;-81
2022/07/22 10:11:28;;;;;;;4.35;0.98;;;15.60;99.90;;;;;;5047306;28;20298;-81
2022/07/22 10:13:59;;;;;;;3.83;1.27;;;15.50;99.90;;;;;;5027188;28;20576;-80
2022/07/22 10:16:30;;;;;;;8.50;1.33;;;15.60;99.90;;;;;;5033600;28;20211;-80
2022/07/22 10:19:01;;;;;;;4.85;1.00;;;15.60;99.90;;;;;;5026844;28;20208;-82
2022/07/22 10:21:37;;;;;;;5.78;1.10;;;15.50;99.90;;;;;;5027041;28;20238;-83
2022/07/22 10:24:14;;;;;;;5.50;1.10;;;15.50;99.90;;;;;;5033653;28;20196;-81
2022/07/22 10:26:57;;;;;;;5.55;1.20;;;15.50;99.90;;;;;;5050252;28;20241;-81
2022/07/22 10:29:32;;;;;;;3.92;1.00;;;15.50;99.90;;;;;;5052485;28;20218;-82
2022/07/22 10:32:27;;;;;;;3.60;1.10;;;15.50;99.90;;;;;;5044476;28;20193;-84
2022/07/22 10:35:27;;;;;;;5.03;1.10;;;15.40;99.90;;;;;;5050526;28;20538;-81
2022/07/22 10:38:06;;;;;;;5.03;1.33;;;15.40;99.90;;;;;;5051310;28;20563;-81
2022/07/22 10:40:51;;;;;;;3.88;1.23;;;15.40;99.90;;;;;;5051487;28;20244;-81
2022/07/22 10:43:25;;;;;;;4.68;1.10;;;15.40;99.90;;;;;;5031816;28;20561;-81
2022/07/22 10:45:57;;;;;;;6.32;1.23;;;15.40;99.90;;;;;;5042673;28;20199;-81
2022/07/22 10:48:48;;;;;;;4.95;1.10;;;15.40;99.90;;;;;;5050037;28;20192;-81
2022/07/22 10:51:20;;;;;;;6.22;1.48;;;15.30;99.90;;;;;;5048843;28;20220;-80
2022/07/22 10:53:57;;;;;;;3.78;0.75;;;15.30;99.90;;;;;;5049047;28;20576;-81
2022/07/22 10:56:29;;;;;;;6.57;1.30;;;15.40;99.90;;;;;;5034512;28;20192;-81
2022/07/22 10:59:11;;;;;;;4.57;1.38;;;15.40;99.90;;;;;;5048564;28;20197;-80
2022/07/22 11:01:44;;;;;;;4.38;1.10;;;15.40;99.90;;;;;;5050262;28;20575;-81
2022/07/22 11:04:18;;;;;;;4.38;1.10;;;15.30;99.90;;;;;;5050681;28;20242;-82
2022/07/22 11:06:50;;;;;;;5.18;1.25;;;15.30;99.90;;;;;;5030838;28;20665;-81
2022/07/22 11:09:21;;;;;;;6.53;2.08;;;15.40;99.90;;;;;;5035510;28;20248;-81
2022/07/22 11:11:53;;;;;;;9.20;3.20;;;15.30;99.90;;;;;;5033527;28;20205;-82
2022/07/22 11:14:31;;;;;;;7.97;3.00;;;15.40;99.90;;;;;;5038794;28;20197;-83
2022/07/22 11:17:03;;;;;;;7.53;3.00;;;15.30;99.90;;;;;;5050961;28;20192;-83
2022/07/22 11:19:37;;;;;;;5.68;1.98;;;15.40;99.90;;;;;;5050858;28;20207;-83
2022/07/22 11:22:10;;;;;;;3.65;1.42;;;15.30;99.90;;;;;;5049931;28;20284;-83
2022/07/22 11:24:43;;;;;;;7.40;1.98;;;15.30;99.90;;;;;;5048000;28;20201;-82
2022/07/22 11:27:17;;;;;;;6.97;1.88;;;15.30;99.90;;;;;;5030821;28;20181;-83
2022/07/22 11:29:52;;;;;;;5.05;1.80;;;15.20;99.90;;;;;;5030530;28;20216;-83
2022/07/22 11:32:24;;;;;;;3.75;1.50;;;15.20;99.90;;;;;;5031832;28;20224;-83
2022/07/22 11:34:55;;;;;;;6.75;1.60;;;15.10;99.90;;;;;;5033264;28;20207;-81
2022/07/22 11:37:28;;;;;;;4.07;1.30;;;15.10;99.90;;;;;;5050692;28;20197;-82
2022/07/22 11:40:03;;;;;;;2.72;1.10;;;15.10;99.90;;;;;;5049522;28;20236;-83
2022/07/22 11:42:34;;;;;;;9.13;1.58;;;15.10;99.90;;;;;;5049510;28;20208;-82
2022/07/22 11:45:10;;;;;;;5.20;1.33;;;15.10;99.90;;;;;;5050642;28;20200;-81
2022/07/22 11:47:50;;;;;;;4.40;1.40;;;15.10;99.90;;;;;;5054492;28;20184;-82
2022/07/22 11:50:33;;;;;;;3.28;1.50;;;15.10;99.90;;;;;;5055277;28;20306;-81
2022/07/22 11:53:06;;;;;;;5.07;2.20;;;15.10;99.90;;;;;;5050763;28;20202;-80
2022/07/22 11:55:37;;;;;;;5.30;2.28;;;15.00;99.90;;;;;;5046718;28;20236;-81
2022/07/22 11:58:09;;;;;;;3.90;1.65;;;15.00;99.90;;;;;;5041474;28;20205;-80
2022/07/22 12:00:45;;;;;;;6.03;1.98;;;15.00;99.90;;;;;;5033051;28;20221;-81
2022/07/22 12:03:15;;;;;;;2.78;1.50;;;15.00;99.90;;;;;;5030263;28;20204;-82
2022/07/22 12:05:47;;;;;;;3.70;1.50;;;15.00;99.90;;;;;;5047470;28;20648;-80
2022/07/22 12:08:17;;;;;;;3.95;1.65;;;15.00;99.90;;;;;;5049719;28;20208;-80
2022/07/22 12:10:49;;;;;;;4.55;1.58;;;15.00;99.90;;;;;;5045245;28;20216;-80
2022/07/22 12:13:21;;;;;;;5.25;2.10;;;14.90;99.90;;;;;;5039617;28;20211;-79
2022/07/22 12:15:55;;;;;;;3.22;1.95;;;15.00;99.90;;;;;;5025781;28;20544;-79
2022/07/22 12:18:27;;;;;;;3.55;1.83;;;15.00;99.90;;;;;;5025079;28;20209;-80
2022/07/22 12:20:58;;;;;;;5.13;2.10;;;15.00;99.90;;;;;;5027199;28;20714;-79
2022/07/22 12:23:29;;;;;;;7.75;1.60;;;15.00;99.90;;;;;;5028457;28;20212;-79
2022/07/22 12:26:01;;;;;;;6.30;1.98;;;15.00;99.90;;;;;;5027892;28;20205;-79
2022/07/22 12:28:32;;;;;;;4.97;1.95;;;15.00;99.90;;;;;;5031909;28;20197;-79
2022/07/22 12:31:05;;;;;;;4.28;2.25;;;15.00;99.90;;;;;;5030050;28;20248;-80
2022/07/22 12:33:36;;;;;;;2.15;1.40;;;15.00;99.90;;;;;;5028970;28;20232;-80
2022/07/22 12:36:08;;;;;;;5.28;1.70;;;15.00;99.90;;;;;;5029052;28;20193;-81
2022/07/22 12:38:39;;;;;;;3.85;1.38;;;15.00;99.90;;;;;;5029658;28;20232;-79
2022/07/22 12:41:29;;;;;;;5.38;1.67;;;15.00;99.90;;;;;;5028200;28;20201;-80
2022/07/22 12:44:00;;;;;;;6.72;2.53;;;15.00;99.90;;;;;;5028107;28;20228;-81
2022/07/22 12:46:35;;;;;;;4.47;2.28;;;15.00;99.90;;;;;;5028016;28;20220;-80
2022/07/22 12:49:06;;;;;;;4.95;1.75;;;15.00;99.90;;;;;;5028988;28;20196;-81
2022/07/22 12:51:36;;;;;;;4.80;1.65;;;15.00;99.90;;;;;;5027668;28;20235;-81
2022/07/22 12:54:07;;;;;;;5.72;1.80;;;15.00;99.90;;;;;;5029455;28;20201;-81
2022/07/22 12:56:39;;;;;;;3.92;1.50;;;15.00;99.90;;;;;;5027276;28;20192;-80
2022/07/22 12:59:10;;;;;;;4.70;1.92;;;15.00;99.90;;;;;;5027725;28;20536;-81
2022/07/22 13:01:43;;;;;;;4.32;2.03;;;15.00;99.90;;;;;;5027936;28;20243;-82
2022/07/22 13:04:13;;;;;;;5.88;1.80;;;15.00;99.90;;;;;;5027374;28;20205;-83
2022/07/22 13:06:44;;;;;;;3.85;2.10;;;15.00;99.90;;;;;;5031322;28;20201;-82
2022/07/22 13:09:15;;;;;;;4.25;2.10;;;15.00;99.90;;;;;;5034946;28;20694;-83
2022/07/22 13:11:46;;;;;;;4.55;2.25;;;14.90;99.90;;;;;;5045310;28;20213;-82